Happy Bird — ZIRQ6 — position and weather

sailwx.info

Track history (hours):
 
Tides and Currents Weather Stations Pressure Air Temp Water Temp Dewpoint Dewpoint Depression Visibility Wind Speed Wind Dir Waves Ship Positions

Happy Bird

Last reported at 2018-Jan-08 11:18 UTC. Time now 2018-Jan-20 13:28 UTC.
Position N 35°60' E 014°48'.
Warning: this ship's position is 12 days out of date.

Length 119 m; draft 7 m.

Type: Tanker. MMSI: 235513000.

Date/timePositionNaut miles runAvg speedWind from/ knotsBaromVisibWave heightAir tempDewpointWater temp
2018-Jan-08 11:18N 35°60' E 014°48'1 1.7
2018-Jan-08 10:56N 36°00' E 014°48'4 8.9
2018-Jan-08 10:31N 36°03' E 014°44'4 7.3
2018-Jan-08 10:01N 36°05' E 014°41'4 7.5
2018-Jan-08 09:30N 36°08' E 014°37'4 7.8
2018-Jan-08 09:00N 36°10' E 014°33'5 9.2
2018-Jan-08 08:30N 36°13' E 014°29'4 7.4
2018-Jan-08 08:00N 36°16' E 014°26'2 4.3
2018-Jan-08 07:30N 36°18' E 014°25'0 0.5
2018-Jan-08 07:00N 36°18' E 014°26'1 1.2
2018-Jan-08 06:30N 36°17' E 014°26'1 1.3
2018-Jan-08 06:00N 36°17' E 014°27'1 1.4
2018-Jan-08 05:30N 36°17' E 014°28'1 1.3
2018-Jan-08 05:00N 36°17' E 014°29'1 1.3
2018-Jan-08 04:27N 36°16' E 014°30'1 1.4
2018-Jan-08 04:00N 36°16' E 014°30'1 1.5
2018-Jan-08 03:30N 36°16' E 014°31'1 1.5
2018-Jan-08 03:00N 36°16' E 014°32'1 1.5
2018-Jan-08 02:21N 36°15' E 014°33'1 1.6
2018-Jan-08 02:00N 36°15' E 014°34'1 1.6
2018-Jan-08 01:30N 36°14' E 014°34'1 1.6
2018-Jan-08 01:00N 36°14' E 014°35'1 1.5
2018-Jan-08 00:30N 36°13' E 014°35'1 1.3
2018-Jan-08 00:00N 36°12' E 014°36'1 1.2
2018-Jan-07 23:30N 36°12' E 014°36'1 1.3
2018-Jan-07 23:00N 36°12' E 014°37'1 1.4
2018-Jan-07 22:24N 36°11' E 014°37'13 1.4
2018-Jan-07 13:20N 36°00' E 014°46'1 3.9
2018-Jan-07 13:00N 35°59' E 014°46'3 5.6
2018-Jan-07 12:29N 35°56' E 014°45'510.1
2018-Jan-07 12:00N 35°59' E 014°40'712.9
2018-Jan-07 11:29N 36°03' E 014°33'713.9
2018-Jan-07 11:00N 36°07' E 014°27'713.7
2018-Jan-07 10:30N 36°11' E 014°19'713.6
2018-Jan-07 10:00N 36°15' E 014°13'713.6
2018-Jan-07 09:30N 36°18' E 014°06'713.8
2018-Jan-07 09:00N 36°22' E 013°58'714.0
2018-Jan-07 08:30N 36°25' E 013°50'814.1
2018-Jan-07 07:56N 36°27' E 013°41'613.6
2018-Jan-07 07:30N 36°29' E 013°34'1014.0
2018-Jan-07 06:47N 36°32' E 013°22'1513.9
2018-Jan-07 05:43N 36°37' E 013°05'314.4
2018-Jan-07 05:29N 36°38' E 013°01'714.2
2018-Jan-07 05:00N 36°40' E 012°53'714.1
2018-Jan-07 04:30N 36°42' E 012°44'1114.2
2018-Jan-07 03:43N 36°46' E 012°31'2813.8
2018-Jan-07 01:42N 36°59' E 012°00'33114.2
2018-Jan-06 02:25N 37°16' E 005°06'5914.9
2018-Jan-05 22:29N 37°09' E 003°53'714.3
2018-Jan-05 22:01N 37°08' E 003°44'714.2
2018-Jan-05 21:30N 37°06' E 003°36'914.6
2018-Jan-05 20:55N 37°04' E 003°25'42215.1
2018-Jan-04 16:55N 35°58' W 005°14'717.6
2018-Jan-04 16:30N 35°58' W 005°23'26812.1
2018-Jan-03 18:24N 38°24' W 010°06'1914.3
2018-Jan-03 17:06N 38°42' W 010°11'114.3
2018-Jan-03 17:00N 38°43' W 010°11'713.8
2018-Jan-03 16:29N 38°50' W 010°11'713.7
2018-Jan-03 16:00N 38°57' W 010°10'714.2
2018-Jan-03 15:31N 39°04' W 010°11'714.0
2018-Jan-03 15:00N 39°11' W 010°11'  
2017-Dec-31 17:34N 49°47' W 003°24'1 5.0
2017-Dec-31 17:19N 49°47' W 003°23'1 4.8
2017-Dec-31 17:00N 49°48' W 003°21'3 5.2
2017-Dec-31 16:30N 49°49' W 003°17'5 5.5
2017-Dec-31 15:35N 49°51' W 003°10'1 6.4
2017-Dec-31 15:30N 49°52' W 003°09'6 6.9
2017-Dec-31 14:33N 49°55' W 003°01'0 7.8
2017-Dec-31 14:29N 49°55' W 003°00'4 8.2
2017-Dec-31 14:00N 49°58' W 002°55'5 9.3
2017-Dec-31 13:30N 49°59' W 002°48'3 6.0
2017-Dec-31 13:00N 50°00' W 002°44'8 6.6
2017-Dec-31 11:51N 50°03' W 002°33'2 5.3
2017-Dec-31 11:27N 50°03' W 002°29'4 8.8
2017-Dec-31 10:57N 50°04' W 002°23'80 9.2
2017-Dec-31 02:16N 50°27' W 000°23'311.5
2017-Dec-31 02:00N 50°28' W 000°19'611.7
2017-Dec-31 01:30N 50°30' W 000°10'612.5
2017-Dec-31 01:00N 50°31' W 000°01'612.8
2017-Dec-31 00:30N 50°33' E 000°09'712.9
2017-Dec-31 00:00N 50°35' E 000°19'612.9
2017-Dec-30 23:30N 50°37' E 000°28'612.6
2017-Dec-30 23:00N 50°40' E 000°37'612.6
2017-Dec-30 22:30N 50°43' E 000°46'612.7
2017-Dec-30 22:00N 50°47' E 000°54'712.0
2017-Dec-30 21:27N 50°51' E 001°02'511.8
2017-Dec-30 20:59N 50°55' E 001°09'611.7
2017-Dec-30 20:30N 50°58' E 001°16'611.4
2017-Dec-30 20:00N 51°02' E 001°23'611.8
2017-Dec-30 19:30N 51°05' E 001°30'612.5
2017-Dec-30 19:00N 51°09' E 001°37'713.6
2017-Dec-30 18:31N 51°14' E 001°46'714.4
2017-Dec-30 18:00N 51°19' E 001°53'714.0
2017-Dec-30 17:30N 51°24' E 002°01'713.3
2017-Dec-30 17:00N 51°22' E 002°11'612.7
2017-Dec-30 16:30N 51°21' E 002°21'713.5
2017-Dec-30 15:59N 51°23' E 002°31'3 5.3
2017-Dec-30 15:30N 51°24' E 002°35'1 0.8
2017-Dec-30 14:50N 51°24' E 002°36'0 0.0
2017-Dec-30 14:29N 51°24' E 002°36'0 0.0
2017-Dec-30 13:59N 51°24' E 002°36'0 0.0
2017-Dec-30 13:29N 51°24' E 002°36'0 0.0
2017-Dec-30 12:59N 51°24' E 002°36'0 0.2
2017-Dec-30 12:29N 51°24' E 002°36'1 1.4
2017-Dec-30 11:54N 51°25' E 002°37'1 1.5
2017-Dec-30 11:30N 51°24' E 002°36'0 0.2
2017-Dec-30 11:00N 51°24' E 002°36'0 0.0
2017-Dec-30 10:30N 51°24' E 002°36'0 0.0
2017-Dec-30 09:57N 51°24' E 002°36'0 0.0
2017-Dec-30 09:21N 51°24' E 002°36'0 0.0
2017-Dec-30 08:54N 51°24' E 002°36'0 0.0
2017-Dec-30 08:30N 51°24' E 002°36'0 0.0
2017-Dec-30 08:00N 51°24' E 002°36'0 0.0
2017-Dec-30 07:27N 51°24' E 002°36'0 0.0
2017-Dec-30 07:00N 51°24' E 002°36'0 0.3
2017-Dec-30 06:30N 51°24' E 002°36'0 0.3
2017-Dec-30 06:00N 51°24' E 002°35'0 0.1
2017-Dec-30 05:27N 51°24' E 002°35'0 0.0
2017-Dec-30 05:00N 51°24' E 002°35'0 0.0
2017-Dec-30 04:30N 51°24' E 002°35'0 0.2
2017-Dec-30 04:00N 51°24' E 002°35'0 0.2
2017-Dec-30 03:30N 51°24' E 002°35'0 0.2
2017-Dec-30 03:00N 51°24' E 002°36'0 0.1
2017-Dec-30 02:27N 51°24' E 002°36'0 0.1
2017-Dec-30 01:58N 51°24' E 002°36'4 7.8
2017-Dec-30 01:27N 51°23' E 002°42'510.1
2017-Dec-30 01:00N 51°22' E 002°49'713.2
2017-Dec-30 00:29N 51°24' E 002°59'612.7
2017-Dec-30 00:00N 51°24' E 003°09'713.3
2017-Dec-29 23:30N 51°24' E 003°20'713.3
2017-Dec-29 23:00N 51°25' E 003°31'612.8
2017-Dec-29 22:30N 51°27' E 003°40'1 0.5
2017-Dec-29 20:00N 51°28' E 003°42'0 0.0
2017-Dec-29 19:24N 51°28' E 003°42'0 0.0
2017-Dec-29 19:00N 51°28' E 003°42'0 0.0
2017-Dec-29 18:18N 51°28' E 003°42'0 0.0
2017-Dec-29 17:54N 51°28' E 003°42'0 0.0
2017-Dec-29 17:24N 51°28' E 003°42'0 0.0
2017-Dec-29 17:00N 51°28' E 003°42'0 0.0
2017-Dec-29 16:18N 51°28' E 003°42'0 0.0
2017-Dec-29 16:00N 51°28' E 003°42'0 0.0
2017-Dec-29 15:24N 51°28' E 003°42'0 0.0
2017-Dec-29 14:54N 51°28' E 003°42'0 0.0
2017-Dec-29 14:12N 51°28' E 003°42'0 0.0
2017-Dec-29 13:54N 51°28' E 003°42'0 0.0
2017-Dec-29 13:18N 51°28' E 003°42'0 0.0
2017-Dec-29 12:30N 51°28' E 003°42'0 0.0
2017-Dec-29 11:54N 51°28' E 003°42'  
Track history (hours):
 
Tides and Currents Weather Stations Pressure Air Temp Water Temp Dewpoint Dewpoint Depression Visibility Wind Speed Wind Dir Waves Ship Positions

Happy Bird

Last reported at 2018-Jan-08 11:18 UTC. Time now 2018-Jan-20 13:28 UTC.
Position N 35°60' E 014°48'.
Warning: this ship's position is 12 days out of date.

Length 119 m; draft 7 m.

Type: Tanker. MMSI: 235513000.

Date/timePositionNaut miles runAvg speedWind from/ knotsBaromVisibWave heightAir tempDewpointWater temp
2018-Jan-08 11:18N 35°60' E 014°48'1 1.7
2018-Jan-08 10:56N 36°00' E 014°48'4 8.9
2018-Jan-08 10:31N 36°03' E 014°44'4 7.3
2018-Jan-08 10:01N 36°05' E 014°41'4 7.5
2018-Jan-08 09:30N 36°08' E 014°37'4 7.8
2018-Jan-08 09:00N 36°10' E 014°33'5 9.2
2018-Jan-08 08:30N 36°13' E 014°29'4 7.4
2018-Jan-08 08:00N 36°16' E 014°26'2 4.3
2018-Jan-08 07:30N 36°18' E 014°25'0 0.5
2018-Jan-08 07:00N 36°18' E 014°26'1 1.2
2018-Jan-08 06:30N 36°17' E 014°26'1 1.3
2018-Jan-08 06:00N 36°17' E 014°27'1 1.4
2018-Jan-08 05:30N 36°17' E 014°28'1 1.3
2018-Jan-08 05:00N 36°17' E 014°29'1 1.3
2018-Jan-08 04:27N 36°16' E 014°30'1 1.4
2018-Jan-08 04:00N 36°16' E 014°30'1 1.5
2018-Jan-08 03:30N 36°16' E 014°31'1 1.5
2018-Jan-08 03:00N 36°16' E 014°32'1 1.5
2018-Jan-08 02:21N 36°15' E 014°33'1 1.6
2018-Jan-08 02:00N 36°15' E 014°34'1 1.6
2018-Jan-08 01:30N 36°14' E 014°34'1 1.6
2018-Jan-08 01:00N 36°14' E 014°35'1 1.5
2018-Jan-08 00:30N 36°13' E 014°35'1 1.3
2018-Jan-08 00:00N 36°12' E 014°36'1 1.2
2018-Jan-07 23:30N 36°12' E 014°36'1 1.3
2018-Jan-07 23:00N 36°12' E 014°37'1 1.4
2018-Jan-07 22:24N 36°11' E 014°37'13 1.4
2018-Jan-07 13:20N 36°00' E 014°46'1 3.9
2018-Jan-07 13:00N 35°59' E 014°46'3 5.6
2018-Jan-07 12:29N 35°56' E 014°45'510.1
2018-Jan-07 12:00N 35°59' E 014°40'712.9
2018-Jan-07 11:29N 36°03' E 014°33'713.9
2018-Jan-07 11:00N 36°07' E 014°27'713.7
2018-Jan-07 10:30N 36°11' E 014°19'713.6
2018-Jan-07 10:00N 36°15' E 014°13'713.6
2018-Jan-07 09:30N 36°18' E 014°06'713.8
2018-Jan-07 09:00N 36°22' E 013°58'714.0
2018-Jan-07 08:30N 36°25' E 013°50'814.1
2018-Jan-07 07:56N 36°27' E 013°41'613.6
2018-Jan-07 07:30N 36°29' E 013°34'1014.0
2018-Jan-07 06:47N 36°32' E 013°22'1513.9
2018-Jan-07 05:43N 36°37' E 013°05'314.4
2018-Jan-07 05:29N 36°38' E 013°01'714.2
2018-Jan-07 05:00N 36°40' E 012°53'714.1
2018-Jan-07 04:30N 36°42' E 012°44'1114.2
2018-Jan-07 03:43N 36°46' E 012°31'2813.8
2018-Jan-07 01:42N 36°59' E 012°00'33114.2
2018-Jan-06 02:25N 37°16' E 005°06'5914.9
2018-Jan-05 22:29N 37°09' E 003°53'714.3
2018-Jan-05 22:01N 37°08' E 003°44'714.2
2018-Jan-05 21:30N 37°06' E 003°36'914.6
2018-Jan-05 20:55N 37°04' E 003°25'42215.1
2018-Jan-04 16:55N 35°58' W 005°14'717.6
2018-Jan-04 16:30N 35°58' W 005°23'26812.1
2018-Jan-03 18:24N 38°24' W 010°06'1914.3
2018-Jan-03 17:06N 38°42' W 010°11'114.3
2018-Jan-03 17:00N 38°43' W 010°11'713.8
2018-Jan-03 16:29N 38°50' W 010°11'713.7
2018-Jan-03 16:00N 38°57' W 010°10'714.2
2018-Jan-03 15:31N 39°04' W 010°11'714.0
2018-Jan-03 15:00N 39°11' W 010°11'  
2017-Dec-31 17:34N 49°47' W 003°24'1 5.0
2017-Dec-31 17:19N 49°47' W 003°23'1 4.8
2017-Dec-31 17:00N 49°48' W 003°21'3 5.2
2017-Dec-31 16:30N 49°49' W 003°17'5 5.5
2017-Dec-31 15:35N 49°51' W 003°10'1 6.4
2017-Dec-31 15:30N 49°52' W 003°09'6 6.9
2017-Dec-31 14:33N 49°55' W 003°01'0 7.8
2017-Dec-31 14:29N 49°55' W 003°00'4 8.2
2017-Dec-31 14:00N 49°58' W 002°55'5 9.3
2017-Dec-31 13:30N 49°59' W 002°48'3 6.0
2017-Dec-31 13:00N 50°00' W 002°44'8 6.6
2017-Dec-31 11:51N 50°03' W 002°33'2 5.3
2017-Dec-31 11:27N 50°03' W 002°29'4 8.8
2017-Dec-31 10:57N 50°04' W 002°23'80 9.2
2017-Dec-31 02:16N 50°27' W 000°23'311.5
2017-Dec-31 02:00N 50°28' W 000°19'611.7
2017-Dec-31 01:30N 50°30' W 000°10'612.5
2017-Dec-31 01:00N 50°31' W 000°01'612.8
2017-Dec-31 00:30N 50°33' E 000°09'712.9
2017-Dec-31 00:00N 50°35' E 000°19'612.9
2017-Dec-30 23:30N 50°37' E 000°28'612.6
2017-Dec-30 23:00N 50°40' E 000°37'612.6
2017-Dec-30 22:30N 50°43' E 000°46'612.7
2017-Dec-30 22:00N 50°47' E 000°54'712.0
2017-Dec-30 21:27N 50°51' E 001°02'511.8
2017-Dec-30 20:59N 50°55' E 001°09'611.7
2017-Dec-30 20:30N 50°58' E 001°16'611.4
2017-Dec-30 20:00N 51°02' E 001°23'611.8
2017-Dec-30 19:30N 51°05' E 001°30'612.5
2017-Dec-30 19:00N 51°09' E 001°37'713.6
2017-Dec-30 18:31N 51°14' E 001°46'714.4
2017-Dec-30 18:00N 51°19' E 001°53'714.0
2017-Dec-30 17:30N 51°24' E 002°01'713.3
2017-Dec-30 17:00N 51°22' E 002°11'612.7
2017-Dec-30 16:30N 51°21' E 002°21'713.5
2017-Dec-30 15:59N 51°23' E 002°31'3 5.3
2017-Dec-30 15:30N 51°24' E 002°35'1 0.8
2017-Dec-30 14:50N 51°24' E 002°36'0 0.0
2017-Dec-30 14:29N 51°24' E 002°36'0 0.0
2017-Dec-30 13:59N 51°24' E 002°36'0 0.0
2017-Dec-30 13:29N 51°24' E 002°36'0 0.0
2017-Dec-30 12:59N 51°24' E 002°36'0 0.2
2017-Dec-30 12:29N 51°24' E 002°36'1 1.4
2017-Dec-30 11:54N 51°25' E 002°37'1 1.5
2017-Dec-30 11:30N 51°24' E 002°36'0 0.2
2017-Dec-30 11:00N 51°24' E 002°36'0 0.0
2017-Dec-30 10:30N 51°24' E 002°36'0 0.0
2017-Dec-30 09:57N 51°24' E 002°36'0 0.0
2017-Dec-30 09:21N 51°24' E 002°36'0 0.0
2017-Dec-30 08:54N 51°24' E 002°36'0 0.0
2017-Dec-30 08:30N 51°24' E 002°36'0 0.0
2017-Dec-30 08:00N 51°24' E 002°36'0 0.0
2017-Dec-30 07:27N 51°24' E 002°36'0 0.0
2017-Dec-30 07:00N 51°24' E 002°36'0 0.3
2017-Dec-30 06:30N 51°24' E 002°36'0 0.3
2017-Dec-30 06:00N 51°24' E 002°35'0 0.1
2017-Dec-30 05:27N 51°24' E 002°35'0 0.0
2017-Dec-30 05:00N 51°24' E 002°35'0 0.0
2017-Dec-30 04:30N 51°24' E 002°35'0 0.2
2017-Dec-30 04:00N 51°24' E 002°35'0 0.2
2017-Dec-30 03:30N 51°24' E 002°35'0 0.2
2017-Dec-30 03:00N 51°24' E 002°36'0 0.1
2017-Dec-30 02:27N 51°24' E 002°36'0 0.1
2017-Dec-30 01:58N 51°24' E 002°36'4 7.8
2017-Dec-30 01:27N 51°23' E 002°42'510.1
2017-Dec-30 01:00N 51°22' E 002°49'713.2
2017-Dec-30 00:29N 51°24' E 002°59'612.7
2017-Dec-30 00:00N 51°24' E 003°09'713.3
2017-Dec-29 23:30N 51°24' E 003°20'713.3
2017-Dec-29 23:00N 51°25' E 003°31'612.8
2017-Dec-29 22:30N 51°27' E 003°40'1 0.5
2017-Dec-29 20:00N 51°28' E 003°42'0 0.0
2017-Dec-29 19:24N 51°28' E 003°42'0 0.0
2017-Dec-29 19:00N 51°28' E 003°42'0 0.0
2017-Dec-29 18:18N 51°28' E 003°42'0 0.0
2017-Dec-29 17:54N 51°28' E 003°42'0 0.0
2017-Dec-29 17:24N 51°28' E 003°42'0 0.0
2017-Dec-29 17:00N 51°28' E 003°42'0 0.0
2017-Dec-29 16:18N 51°28' E 003°42'0 0.0
2017-Dec-29 16:00N 51°28' E 003°42'0 0.0
2017-Dec-29 15:24N 51°28' E 003°42'0 0.0
2017-Dec-29 14:54N 51°28' E 003°42'0 0.0
2017-Dec-29 14:12N 51°28' E 003°42'0 0.0
2017-Dec-29 13:54N 51°28' E 003°42'0 0.0
2017-Dec-29 13:18N 51°28' E 003°42'0 0.0
2017-Dec-29 12:30N 51°28' E 003°42'0 0.0
2017-Dec-29 11:54N 51°28' E 003°42'  

Dump ship's entire track history